sensor_id;sensor_type;location;lat;lon;timestamp;P1;durP1;ratioP1;P2;durP2;ratioP2
3095;SDS011;1558;42.700;23.360;2022-11-23T07:26:19;6.20;;;4.80;;
3095;SDS011;1558;42.700;23.360;2022-11-23T07:28:47;5.33;;;3.83;;
3095;SDS011;1558;42.700;23.360;2022-11-23T07:31:15;4.47;;;3.30;;
3095;SDS011;1558;42.700;23.360;2022-11-23T07:33:43;5.87;;;3.60;;
3095;SDS011;1558;42.700;23.360;2022-11-23T07:36:11;6.47;;;4.33;;
3095;SDS011;1558;42.700;23.360;2022-11-23T07:38:40;6.23;;;4.33;;
3095;SDS011;1558;42.700;23.360;2022-11-23T07:41:08;5.10;;;3.93;;
3095;SDS011;1558;42.700;23.360;2022-11-23T07:43:37;4.17;;;3.67;;
3095;SDS011;1558;42.700;23.360;2022-11-23T07:46:06;3.07;;;2.87;;
3095;SDS011;1558;42.700;23.360;2022-11-23T07:48:34;3.60;;;3.27;;
3095;SDS011;1558;42.700;23.360;2022-11-23T07:51:02;5.77;;;4.70;;
3095;SDS011;1558;42.700;23.360;2022-11-23T07:53:30;4.67;;;3.17;;
3095;SDS011;1558;42.700;23.360;2022-11-23T07:55:58;4.40;;;3.33;;
3095;SDS011;1558;42.700;23.360;2022-11-23T07:58:26;5.57;;;4.23;;
3095;SDS011;1558;42.700;23.360;2022-11-23T08:00:55;4.17;;;3.37;;
3095;SDS011;1558;42.700;23.360;2022-11-23T08:03:23;3.47;;;3.17;;
3095;SDS011;1558;42.700;23.360;2022-11-23T08:05:54;4.37;;;2.87;;
3095;SDS011;1558;42.700;23.360;2022-11-23T08:08:22;5.10;;;4.60;;
3095;SDS011;1558;42.700;23.360;2022-11-23T08:10:50;4.23;;;3.07;;
3095;SDS011;1558;42.700;23.360;2022-11-23T08:13:20;4.27;;;2.80;;
3095;SDS011;1558;42.700;23.360;2022-11-23T08:15:48;3.97;;;2.30;;
3095;SDS011;1558;42.700;23.360;2022-11-23T08:18:22;3.20;;;2.77;;
3095;SDS011;1558;42.700;23.360;2022-11-23T08:20:50;4.73;;;3.07;;
3095;SDS011;1558;42.700;23.360;2022-11-23T08:23:18;4.23;;;3.17;;
3095;SDS011;1558;42.700;23.360;2022-11-23T08:25:46;3.87;;;3.57;;
3095;SDS011;1558;42.700;23.360;2022-11-23T08:28:14;7.13;;;3.37;;
3095;SDS011;1558;42.700;23.360;2022-11-23T08:30:42;3.63;;;3.30;;
3095;SDS011;1558;42.700;23.360;2022-11-23T08:33:10;4.27;;;3.83;;
3095;SDS011;1558;42.700;23.360;2022-11-23T08:35:41;3.30;;;3.00;;
3095;SDS011;1558;42.700;23.360;2022-11-23T08:38:09;3.22;;;2.92;;
3095;SDS011;1558;42.700;23.360;2022-11-23T08:40:37;4.50;;;3.13;;
3095;SDS011;1558;42.700;23.360;2022-11-23T08:43:05;4.72;;;3.25;;
3095;SDS011;1558;42.700;23.360;2022-11-23T08:45:33;3.90;;;3.22;;
3095;SDS011;1558;42.700;23.360;2022-11-23T08:48:02;3.70;;;2.70;;
3095;SDS011;1558;42.700;23.360;2022-11-23T08:50:30;5.75;;;3.55;;
3095;SDS011;1558;42.700;23.360;2022-11-23T08:53:02;5.00;;;2.63;;
3095;SDS011;1558;42.700;23.360;2022-11-23T08:55:30;3.92;;;3.53;;
3095;SDS011;1558;42.700;23.360;2022-11-23T08:57:58;3.30;;;2.97;;
3095;SDS011;1558;42.700;23.360;2022-11-23T09:00:27;3.80;;;2.50;;
3095;SDS011;1558;42.700;23.360;2022-11-23T09:02:55;2.50;;;2.30;;
3095;SDS011;1558;42.700;23.360;2022-11-23T09:05:24;3.80;;;2.97;;
3095;SDS011;1558;42.700;23.360;2022-11-23T09:07:52;4.00;;;3.00;;
3095;SDS011;1558;42.700;23.360;2022-11-23T09:10:22;2.50;;;2.30;;
3095;SDS011;1558;42.700;23.360;2022-11-23T09:12:50;2.50;;;2.30;;
3095;SDS011;1558;42.700;23.360;2022-11-23T09:15:18;3.97;;;3.45;;
3095;SDS011;1558;42.700;23.360;2022-11-23T09:17:46;4.13;;;2.53;;
3095;SDS011;1558;42.700;23.360;2022-11-23T09:20:14;2.35;;;1.83;;
3095;SDS011;1558;42.700;23.360;2022-11-23T09:22:42;2.17;;;2.00;;
3095;SDS011;1558;42.700;23.360;2022-11-23T09:25:10;4.72;;;2.55;;
3095;SDS011;1558;42.700;23.360;2022-11-23T09:27:40;11.63;;;10.63;;
3095;SDS011;1558;42.700;23.360;2022-11-23T09:30:08;11.90;;;10.80;;
3095;SDS011;1558;42.700;23.360;2022-11-23T09:32:37;10.15;;;9.18;;
3095;SDS011;1558;42.700;23.360;2022-11-23T09:35:06;10.68;;;9.77;;
3095;SDS011;1558;42.700;23.360;2022-11-23T09:37:34;16.27;;;11.32;;
3095;SDS011;1558;42.700;23.360;2022-11-23T09:40:03;11.10;;;10.00;;
3095;SDS011;1558;42.700;23.360;2022-11-23T09:45:28;11.05;;;9.98;;
3095;SDS011;1558;42.700;23.360;2022-11-23T09:48:10;10.38;;;9.38;;
3095;SDS011;1558;42.700;23.360;2022-11-23T09:50:50;8.48;;;7.78;;
3095;SDS011;1558;42.700;23.360;2022-11-23T09:53:27;8.90;;;8.20;;
3095;SDS011;1558;42.700;23.360;2022-11-23T09:55:59;9.40;;;8.60;;
3095;SDS011;1558;42.700;23.360;2022-11-23T09:58:29;8.73;;;8.00;;
3095;SDS011;1558;42.700;23.360;2022-11-23T10:01:05;7.90;;;7.20;;
3095;SDS011;1558;42.700;23.360;2022-11-23T10:03:38;8.23;;;7.50;;
3095;SDS011;1558;42.700;23.360;2022-11-23T10:06:15;28.23;;;9.15;;
3095;SDS011;1558;42.700;23.360;2022-11-23T10:08:47;8.48;;;7.68;;
3095;SDS011;1558;42.700;23.360;2022-11-23T10:11:34;8.27;;;6.75;;
3095;SDS011;1558;42.700;23.360;2022-11-23T10:14:18;7.10;;;6.45;;
3095;SDS011;1558;42.700;23.360;2022-11-23T10:17:01;6.82;;;6.22;;
3095;SDS011;1558;42.700;23.360;2022-11-23T10:19:40;8.55;;;6.63;;
3095;SDS011;1558;42.700;23.360;2022-11-23T10:22:20;6.15;;;5.70;;
3095;SDS011;1558;42.700;23.360;2022-11-23T10:24:53;5.68;;;5.13;;
3095;SDS011;1558;42.700;23.360;2022-11-23T10:27:27;6.50;;;6.00;;
3095;SDS011;1558;42.700;23.360;2022-11-23T10:29:57;6.75;;;5.43;;
3095;SDS011;1558;42.700;23.360;2022-11-23T10:32:28;7.45;;;5.60;;
3095;SDS011;1558;42.700;23.360;2022-11-23T10:35:01;6.53;;;5.50;;
3095;SDS011;1558;42.700;23.360;2022-11-23T10:37:37;8.95;;;5.22;;
3095;SDS011;1558;42.700;23.360;2022-11-23T10:40:09;9.60;;;5.00;;
3095;SDS011;1558;42.700;23.360;2022-11-23T10:42:43;4.70;;;3.80;;
3095;SDS011;1558;42.700;23.360;2022-11-23T10:45:21;6.57;;;4.68;;
3095;SDS011;1558;42.700;23.360;2022-11-23T10:47:50;5.22;;;4.70;;
3095;SDS011;1558;42.700;23.360;2022-11-23T10:50:25;6.50;;;4.50;;
3095;SDS011;1558;42.700;23.360;2022-11-23T10:52:56;4.40;;;4.00;;
3095;SDS011;1558;42.700;23.360;2022-11-23T10:55:26;4.53;;;4.13;;
3095;SDS011;1558;42.700;23.360;2022-11-23T10:57:56;9.15;;;5.47;;
3095;SDS011;1558;42.700;23.360;2022-11-23T11:00:26;4.32;;;3.67;;
3095;SDS011;1558;42.700;23.360;2022-11-23T11:02:57;4.33;;;3.93;;
3095;SDS011;1558;42.700;23.360;2022-11-23T11:05:27;4.80;;;4.30;;
3095;SDS011;1558;42.700;23.360;2022-11-23T11:08:17;7.50;;;4.60;;
3095;SDS011;1558;42.700;23.360;2022-11-23T11:10:46;5.03;;;4.53;;
3095;SDS011;1558;42.700;23.360;2022-11-23T11:13:26;8.43;;;3.92;;
3095;SDS011;1558;42.700;23.360;2022-11-23T11:15:58;9.45;;;3.92;;
3095;SDS011;1558;42.700;23.360;2022-11-23T11:18:28;5.38;;;3.40;;
3095;SDS011;1558;42.700;23.360;2022-11-23T11:20:58;5.30;;;3.50;;
3095;SDS011;1558;42.700;23.360;2022-11-23T11:23:29;4.88;;;3.85;;
3095;SDS011;1558;42.700;23.360;2022-11-23T11:26:06;7.32;;;6.07;;
3095;SDS011;1558;42.700;23.360;2022-11-23T11:28:41;4.93;;;4.40;;
3095;SDS011;1558;42.700;23.360;2022-11-23T11:31:26;6.82;;;5.18;;
3095;SDS011;1558;42.700;23.360;2022-11-23T11:34:16;5.13;;;4.63;;
3095;SDS011;1558;42.700;23.360;2022-11-23T11:36:49;6.43;;;4.70;;
3095;SDS011;1558;42.700;23.360;2022-11-23T11:39:26;5.03;;;4.55;;
3095;SDS011;1558;42.700;23.360;2022-11-23T11:41:58;8.43;;;5.25;;
3095;SDS011;1558;42.700;23.360;2022-11-23T11:44:29;11.03;;;4.93;;
3095;SDS011;1558;42.700;23.360;2022-11-23T11:47:05;7.60;;;4.73;;
3095;SDS011;1558;42.700;23.360;2022-11-23T11:49:46;6.80;;;4.50;;
3095;SDS011;1558;42.700;23.360;2022-11-23T11:52:17;7.67;;;4.57;;
3095;SDS011;1558;42.700;23.360;2022-11-23T11:54:49;2.83;;;2.53;;
3095;SDS011;1558;42.700;23.360;2022-11-23T11:57:23;3.63;;;3.23;;
3095;SDS011;1558;42.700;23.360;2022-11-23T11:59:57;7.50;;;4.73;;
3095;SDS011;1558;42.700;23.360;2022-11-23T12:02:33;6.67;;;4.23;;
3095;SDS011;1558;42.700;23.360;2022-11-23T12:05:07;7.30;;;5.17;;
3095;SDS011;1558;42.700;23.360;2022-11-23T12:07:43;4.33;;;3.63;;
3095;SDS011;1558;42.700;23.360;2022-11-23T12:10:20;4.90;;;4.20;;
3095;SDS011;1558;42.700;23.360;2022-11-23T12:12:53;10.75;;;4.28;;
3095;SDS011;1558;42.700;23.360;2022-11-23T12:15:23;4.70;;;3.13;;
3095;SDS011;1558;42.700;23.360;2022-11-23T12:18:22;2.70;;;2.20;;
3095;SDS011;1558;42.700;23.360;2022-11-23T12:21:02;2.35;;;2.15;;
3095;SDS011;1558;42.700;23.360;2022-11-23T12:23:35;2.13;;;1.70;;
3095;SDS011;1558;42.700;23.360;2022-11-23T12:26:18;2.78;;;2.40;;
3095;SDS011;1558;42.700;23.360;2022-11-23T12:28:58;6.10;;;3.55;;
3095;SDS011;1558;42.700;23.360;2022-11-23T12:31:44;4.55;;;3.38;;
3095;SDS011;1558;42.700;23.360;2022-11-23T12:34:26;3.92;;;2.40;;
3095;SDS011;1558;42.700;23.360;2022-11-23T12:37:08;2.83;;;1.90;;
3095;SDS011;1558;42.700;23.360;2022-11-23T12:39:58;3.15;;;1.75;;
3095;SDS011;1558;42.700;23.360;2022-11-23T12:42:35;2.58;;;1.90;;
3095;SDS011;1558;42.700;23.360;2022-11-23T12:45:12;4.40;;;1.90;;
3095;SDS011;1558;42.700;23.360;2022-11-23T12:47:50;2.88;;;1.73;;
3095;SDS011;1558;42.700;23.360;2022-11-23T12:50:28;3.53;;;1.80;;
3095;SDS011;1558;42.700;23.360;2022-11-23T12:53:07;2.55;;;1.90;;
3095;SDS011;1558;42.700;23.360;2022-11-23T12:55:56;5.13;;;2.75;;
3095;SDS011;1558;42.700;23.360;2022-11-23T12:58:30;2.40;;;2.15;;
3095;SDS011;1558;42.700;23.360;2022-11-23T13:01:01;3.45;;;1.80;;
3095;SDS011;1558;42.700;23.360;2022-11-23T13:03:38;5.25;;;3.90;;
3095;SDS011;1558;42.700;23.360;2022-11-23T13:15:50;3.70;;;2.10;;
3095;SDS011;1558;42.700;23.360;2022-11-23T13:18:37;1.88;;;1.58;;
3095;SDS011;1558;42.700;23.360;2022-11-23T13:21:16;6.53;;;2.42;;
3095;SDS011;1558;42.700;23.360;2022-11-23T13:23:48;7.28;;;3.20;;
3095;SDS011;1558;42.700;23.360;2022-11-23T13:26:18;3.30;;;2.35;;
3095;SDS011;1558;42.700;23.360;2022-11-23T13:28:47;3.17;;;2.00;;
3095;SDS011;1558;42.700;23.360;2022-11-23T13:31:20;2.40;;;1.45;;
3095;SDS011;1558;42.700;23.360;2022-11-23T13:33:51;6.13;;;1.90;;
3095;SDS011;1558;42.700;23.360;2022-11-23T13:36:34;4.90;;;1.80;;
3095;SDS011;1558;42.700;23.360;2022-11-23T13:42:31;4.47;;;1.73;;
3095;SDS011;1558;42.700;23.360;2022-11-23T13:45:16;3.40;;;1.63;;
3095;SDS011;1558;42.700;23.360;2022-11-23T13:48:10;3.25;;;1.80;;
3095;SDS011;1558;42.700;23.360;2022-11-23T13:51:01;3.17;;;2.30;;
3095;SDS011;1558;42.700;23.360;2022-11-23T13:53:31;2.63;;;2.33;;
3095;SDS011;1558;42.700;23.360;2022-11-23T13:58:50;2.90;;;1.80;;
3095;SDS011;1558;42.700;23.360;2022-11-23T14:04:26;3.63;;;2.10;;
3095;SDS011;1558;42.700;23.360;2022-11-23T14:06:55;4.57;;;2.80;;
3095;SDS011;1558;42.700;23.360;2022-11-23T14:09:28;7.40;;;3.33;;
3095;SDS011;1558;42.700;23.360;2022-11-23T14:12:03;7.10;;;4.20;;
3095;SDS011;1558;42.700;23.360;2022-11-23T14:14:44;4.27;;;2.50;;
3095;SDS011;1558;42.700;23.360;2022-11-23T14:17:28;4.80;;;2.80;;
3095;SDS011;1558;42.700;23.360;2022-11-23T14:20:19;7.73;;;3.57;;
3095;SDS011;1558;42.700;23.360;2022-11-23T14:23:00;6.43;;;2.30;;
3095;SDS011;1558;42.700;23.360;2022-11-23T14:25:46;13.17;;;5.47;;
3095;SDS011;1558;42.700;23.360;2022-11-23T14:28:28;4.13;;;2.47;;
3095;SDS011;1558;42.700;23.360;2022-11-23T14:31:13;8.47;;;4.17;;
3095;SDS011;1558;42.700;23.360;2022-11-23T14:33:51;3.37;;;2.67;;
3095;SDS011;1558;42.700;23.360;2022-11-23T14:36:27;11.10;;;4.40;;
3095;SDS011;1558;42.700;23.360;2022-11-23T14:39:22;21.00;;;5.03;;
3095;SDS011;1558;42.700;23.360;2022-11-23T14:42:10;6.77;;;3.10;;
3095;SDS011;1558;42.700;23.360;2022-11-23T14:44:40;9.50;;;3.63;;
3095;SDS011;1558;42.700;23.360;2022-11-23T14:47:11;19.77;;;7.83;;
3095;SDS011;1558;42.700;23.360;2022-11-23T14:49:49;34.83;;;7.40;;
3095;SDS011;1558;42.700;23.360;2022-11-23T14:52:18;15.33;;;7.97;;
3095;SDS011;1558;42.700;23.360;2022-11-23T14:54:47;14.20;;;4.93;;
3095;SDS011;1558;42.700;23.360;2022-11-23T14:57:17;11.77;;;5.63;;
3095;SDS011;1558;42.700;23.360;2022-11-23T14:59:48;13.00;;;5.30;;
3095;SDS011;1558;42.700;23.360;2022-11-23T15:02:20;9.00;;;5.10;;
3095;SDS011;1558;42.700;23.360;2022-11-23T15:04:55;10.07;;;5.00;;
3095;SDS011;1558;42.700;23.360;2022-11-23T15:07:33;11.37;;;5.67;;
3095;SDS011;1558;42.700;23.360;2022-11-23T15:10:16;17.40;;;6.20;;
3095;SDS011;1558;42.700;23.360;2022-11-23T15:12:51;19.20;;;5.93;;
3095;SDS011;1558;42.700;23.360;2022-11-23T15:15:20;13.97;;;7.10;;
3095;SDS011;1558;42.700;23.360;2022-11-23T15:17:54;8.23;;;4.53;;
3095;SDS011;1558;42.700;23.360;2022-11-23T15:20:23;12.33;;;7.30;;
3095;SDS011;1558;42.700;23.360;2022-11-23T15:22:54;11.73;;;7.93;;
3095;SDS011;1558;42.700;23.360;2022-11-23T15:25:22;11.47;;;6.93;;
3095;SDS011;1558;42.700;23.360;2022-11-23T15:27:50;15.70;;;7.27;;
3095;SDS011;1558;42.700;23.360;2022-11-23T15:30:19;15.23;;;6.80;;
3095;SDS011;1558;42.700;23.360;2022-11-23T15:32:57;19.40;;;5.83;;
3095;SDS011;1558;42.700;23.360;2022-11-23T15:35:28;12.10;;;5.73;;
3095;SDS011;1558;42.700;23.360;2022-11-23T15:37:58;17.43;;;7.00;;
3095;SDS011;1558;42.700;23.360;2022-11-23T15:40:28;16.37;;;6.73;;
3095;SDS011;1558;42.700;23.360;2022-11-23T15:42:59;13.57;;;5.80;;
3095;SDS011;1558;42.700;23.360;2022-11-23T15:45:37;8.87;;;4.83;;
3095;SDS011;1558;42.700;23.360;2022-11-23T15:48:25;13.37;;;6.30;;
3095;SDS011;1558;42.700;23.360;2022-11-23T15:50:55;16.23;;;5.77;;
3095;SDS011;1558;42.700;23.360;2022-11-23T15:53:24;15.23;;;6.63;;
3095;SDS011;1558;42.700;23.360;2022-11-23T15:55:57;23.07;;;9.30;;
3095;SDS011;1558;42.700;23.360;2022-11-23T15:58:26;8.73;;;5.87;;
3095;SDS011;1558;42.700;23.360;2022-11-23T16:00:56;9.50;;;7.13;;
3095;SDS011;1558;42.700;23.360;2022-11-23T16:03:39;11.23;;;8.20;;
3095;SDS011;1558;42.700;23.360;2022-11-23T16:06:15;15.03;;;7.20;;
3095;SDS011;1558;42.700;23.360;2022-11-23T16:08:45;9.13;;;6.97;;
3095;SDS011;1558;42.700;23.360;2022-11-23T16:11:26;23.23;;;7.60;;
3095;SDS011;1558;42.700;23.360;2022-11-23T16:14:09;14.20;;;9.23;;
3095;SDS011;1558;42.700;23.360;2022-11-23T16:16:39;15.23;;;9.03;;
3095;SDS011;1558;42.700;23.360;2022-11-23T16:19:23;16.33;;;10.03;;
3095;SDS011;1558;42.700;23.360;2022-11-23T16:21:54;17.07;;;10.80;;
3095;SDS011;1558;42.700;23.360;2022-11-23T16:24:28;27.13;;;22.27;;
3095;SDS011;1558;42.700;23.360;2022-11-23T16:26:58;14.67;;;13.07;;
3095;SDS011;1558;42.700;23.360;2022-11-23T16:29:28;27.37;;;16.90;;
3095;SDS011;1558;42.700;23.360;2022-11-23T16:32:00;23.70;;;17.60;;
3095;SDS011;1558;42.700;23.360;2022-11-23T16:34:33;20.67;;;14.13;;
3095;SDS011;1558;42.700;23.360;2022-11-23T16:37:01;20.80;;;11.47;;
3095;SDS011;1558;42.700;23.360;2022-11-23T16:39:30;12.67;;;8.70;;
3095;SDS011;1558;42.700;23.360;2022-11-23T16:41:58;11.80;;;8.60;;
3095;SDS011;1558;42.700;23.360;2022-11-23T16:44:25;12.67;;;8.37;;
3095;SDS011;1558;42.700;23.360;2022-11-23T16:46:58;10.43;;;7.70;;
3095;SDS011;1558;42.700;23.360;2022-11-23T16:49:48;19.43;;;10.83;;
3095;SDS011;1558;42.700;23.360;2022-11-23T16:52:16;19.67;;;9.10;;
3095;SDS011;1558;42.700;23.360;2022-11-23T16:54:44;10.40;;;6.67;;
3095;SDS011;1558;42.700;23.360;2022-11-23T16:57:14;10.53;;;6.43;;
3095;SDS011;1558;42.700;23.360;2022-11-23T16:59:46;10.83;;;7.07;;
3095;SDS011;1558;42.700;23.360;2022-11-23T17:02:14;11.67;;;6.87;;
3095;SDS011;1558;42.700;23.360;2022-11-23T17:04:43;10.13;;;5.30;;
3095;SDS011;1558;42.700;23.360;2022-11-23T17:07:12;9.73;;;4.90;;
3095;SDS011;1558;42.700;23.360;2022-11-23T17:09:42;14.33;;;9.30;;
3095;SDS011;1558;42.700;23.360;2022-11-23T17:12:12;18.57;;;16.10;;
3095;SDS011;1558;42.700;23.360;2022-11-23T17:14:44;18.57;;;13.00;;
3095;SDS011;1558;42.700;23.360;2022-11-23T17:17:15;17.63;;;10.17;;
3095;SDS011;1558;42.700;23.360;2022-11-23T17:19:46;14.97;;;10.40;;
3095;SDS011;1558;42.700;23.360;2022-11-23T17:22:16;13.93;;;9.20;;
3095;SDS011;1558;42.700;23.360;2022-11-23T17:24:45;31.50;;;16.70;;
3095;SDS011;1558;42.700;23.360;2022-11-23T17:27:14;14.47;;;11.07;;
3095;SDS011;1558;42.700;23.360;2022-11-23T17:29:44;17.60;;;12.43;;
3095;SDS011;1558;42.700;23.360;2022-11-23T17:32:13;15.67;;;12.30;;
3095;SDS011;1558;42.700;23.360;2022-11-23T17:34:41;14.93;;;12.47;;
3095;SDS011;1558;42.700;23.360;2022-11-23T17:37:09;16.33;;;12.43;;
3095;SDS011;1558;42.700;23.360;2022-11-23T17:39:44;21.53;;;14.20;;
3095;SDS011;1558;42.700;23.360;2022-11-23T17:42:13;14.57;;;13.07;;
3095;SDS011;1558;42.700;23.360;2022-11-23T17:44:41;21.53;;;13.73;;
3095;SDS011;1558;42.700;23.360;2022-11-23T17:47:13;26.63;;;14.03;;
3095;SDS011;1558;42.700;23.360;2022-11-23T17:49:50;21.87;;;15.90;;
3095;SDS011;1558;42.700;23.360;2022-11-23T17:52:18;29.17;;;21.70;;
3095;SDS011;1558;42.700;23.360;2022-11-23T17:54:47;41.83;;;30.83;;
3095;SDS011;1558;42.700;23.360;2022-11-23T17:57:16;27.13;;;21.73;;
3095;SDS011;1558;42.700;23.360;2022-11-23T17:59:49;18.60;;;16.23;;
3095;SDS011;1558;42.700;23.360;2022-11-23T18:02:18;16.43;;;10.70;;
3095;SDS011;1558;42.700;23.360;2022-11-23T18:04:46;14.70;;;11.73;;
3095;SDS011;1558;42.700;23.360;2022-11-23T18:07:14;14.90;;;12.63;;
3095;SDS011;1558;42.700;23.360;2022-11-23T18:09:43;15.30;;;13.27;;
3095;SDS011;1558;42.700;23.360;2022-11-23T18:12:13;16.00;;;12.67;;
3095;SDS011;1558;42.700;23.360;2022-11-23T18:14:41;9.73;;;7.87;;
3095;SDS011;1558;42.700;23.360;2022-11-23T18:17:08;12.23;;;8.40;;
3095;SDS011;1558;42.700;23.360;2022-11-23T18:19:36;11.07;;;7.70;;
3095;SDS011;1558;42.700;23.360;2022-11-23T18:22:04;11.77;;;7.37;;
3095;SDS011;1558;42.700;23.360;2022-11-23T18:24:32;11.03;;;8.87;;
3095;SDS011;1558;42.700;23.360;2022-11-23T18:27:00;14.43;;;9.50;;
3095;SDS011;1558;42.700;23.360;2022-11-23T18:29:29;12.10;;;8.47;;
3095;SDS011;1558;42.700;23.360;2022-11-23T18:31:57;13.20;;;9.77;;
3095;SDS011;1558;42.700;23.360;2022-11-23T18:34:25;12.23;;;9.73;;
3095;SDS011;1558;42.700;23.360;2022-11-23T18:36:53;14.77;;;10.37;;
3095;SDS011;1558;42.700;23.360;2022-11-23T18:39:21;14.17;;;9.73;;
3095;SDS011;1558;42.700;23.360;2022-11-23T18:41:49;17.80;;;10.67;;
3095;SDS011;1558;42.700;23.360;2022-11-23T18:44:17;17.27;;;11.27;;
3095;SDS011;1558;42.700;23.360;2022-11-23T18:46:46;26.63;;;18.27;;
3095;SDS011;1558;42.700;23.360;2022-11-23T18:49:14;19.33;;;13.13;;
3095;SDS011;1558;42.700;23.360;2022-11-23T18:51:42;17.03;;;10.80;;
3095;SDS011;1558;42.700;23.360;2022-11-23T18:54:10;20.23;;;13.23;;
3095;SDS011;1558;42.700;23.360;2022-11-23T18:56:38;14.97;;;10.83;;
3095;SDS011;1558;42.700;23.360;2022-11-23T18:59:06;15.23;;;10.90;;
3095;SDS011;1558;42.700;23.360;2022-11-23T19:01:44;14.30;;;11.37;;
3095;SDS011;1558;42.700;23.360;2022-11-23T19:04:13;20.80;;;12.87;;
3095;SDS011;1558;42.700;23.360;2022-11-23T19:06:41;15.27;;;10.70;;
3095;SDS011;1558;42.700;23.360;2022-11-23T19:09:10;24.40;;;18.77;;
3095;SDS011;1558;42.700;23.360;2022-11-23T19:11:39;23.47;;;15.43;;
3095;SDS011;1558;42.700;23.360;2022-11-23T19:14:09;25.70;;;15.37;;
3095;SDS011;1558;42.700;23.360;2022-11-23T19:16:37;24.23;;;15.97;;
3095;SDS011;1558;42.700;23.360;2022-11-23T19:19:05;25.77;;;15.30;;
3095;SDS011;1558;42.700;23.360;2022-11-23T19:21:34;18.50;;;13.57;;
3095;SDS011;1558;42.700;23.360;2022-11-23T19:24:03;26.37;;;15.00;;
3095;SDS011;1558;42.700;23.360;2022-11-23T19:26:32;23.27;;;14.60;;
3095;SDS011;1558;42.700;23.360;2022-11-23T19:29:00;22.90;;;17.50;;
3095;SDS011;1558;42.700;23.360;2022-11-23T19:31:28;35.03;;;26.70;;
3095;SDS011;1558;42.700;23.360;2022-11-23T19:33:58;47.23;;;35.50;;
3095;SDS011;1558;42.700;23.360;2022-11-23T19:36:28;50.47;;;36.73;;
3095;SDS011;1558;42.700;23.360;2022-11-23T19:38:59;41.13;;;32.10;;
3095;SDS011;1558;42.700;23.360;2022-11-23T19:41:28;34.53;;;26.37;;
3095;SDS011;1558;42.700;23.360;2022-11-23T19:43:56;29.00;;;23.53;;
3095;SDS011;1558;42.700;23.360;2022-11-23T19:46:25;41.50;;;33.37;;
3095;SDS011;1558;42.700;23.360;2022-11-23T19:48:54;43.50;;;34.47;;
3095;SDS011;1558;42.700;23.360;2022-11-23T19:51:22;29.97;;;25.07;;
3095;SDS011;1558;42.700;23.360;2022-11-23T19:53:51;32.17;;;25.53;;
3095;SDS011;1558;42.700;23.360;2022-11-23T19:56:24;37.30;;;30.20;;
3095;SDS011;1558;42.700;23.360;2022-11-23T19:58:54;38.47;;;28.50;;
3095;SDS011;1558;42.700;23.360;2022-11-23T20:01:24;46.90;;;36.33;;
3095;SDS011;1558;42.700;23.360;2022-11-23T20:03:54;53.97;;;40.17;;
3095;SDS011;1558;42.700;23.360;2022-11-23T20:06:23;37.43;;;27.60;;
3095;SDS011;1558;42.700;23.360;2022-11-23T20:08:53;33.77;;;26.50;;
3095;SDS011;1558;42.700;23.360;2022-11-23T20:11:24;37.87;;;28.13;;
3095;SDS011;1558;42.700;23.360;2022-11-23T20:13:54;42.17;;;30.20;;
3095;SDS011;1558;42.700;23.360;2022-11-23T20:16:23;40.67;;;29.90;;
3095;SDS011;1558;42.700;23.360;2022-11-23T20:18:53;35.30;;;25.77;;
3095;SDS011;1558;42.700;23.360;2022-11-23T20:21:22;35.83;;;27.17;;
3095;SDS011;1558;42.700;23.360;2022-11-23T20:23:53;44.87;;;33.00;;
3095;SDS011;1558;42.700;23.360;2022-11-23T20:26:30;35.37;;;28.20;;
3095;SDS011;1558;42.700;23.360;2022-11-23T20:29:00;41.90;;;32.47;;
3095;SDS011;1558;42.700;23.360;2022-11-23T20:31:28;44.83;;;31.07;;
3095;SDS011;1558;42.700;23.360;2022-11-23T20:33:57;41.07;;;30.47;;
3095;SDS011;1558;42.700;23.360;2022-11-23T20:36:26;46.33;;;33.80;;
3095;SDS011;1558;42.700;23.360;2022-11-23T20:38:56;50.87;;;37.70;;
3095;SDS011;1558;42.700;23.360;2022-11-23T20:41:27;52.47;;;39.83;;
3095;SDS011;1558;42.700;23.360;2022-11-23T20:43:58;15.77;;;13.93;;
3095;SDS011;1558;42.700;23.360;2022-11-23T20:46:28;36.77;;;26.77;;
3095;SDS011;1558;42.700;23.360;2022-11-23T20:49:17;26.33;;;20.13;;
3095;SDS011;1558;42.700;23.360;2022-11-23T20:51:45;49.83;;;36.20;;
3095;SDS011;1558;42.700;23.360;2022-11-23T20:54:13;38.03;;;29.53;;
3095;SDS011;1558;42.700;23.360;2022-11-23T20:56:41;22.47;;;17.13;;
3095;SDS011;1558;42.700;23.360;2022-11-23T20:59:11;27.73;;;21.70;;
3095;SDS011;1558;42.700;23.360;2022-11-23T21:01:39;33.07;;;26.83;;
3095;SDS011;1558;42.700;23.360;2022-11-23T21:04:07;43.90;;;32.27;;
3095;SDS011;1558;42.700;23.360;2022-11-23T21:06:35;51.53;;;38.37;;
3095;SDS011;1558;42.700;23.360;2022-11-23T21:09:05;42.90;;;31.13;;
3095;SDS011;1558;42.700;23.360;2022-11-23T21:11:36;56.17;;;41.70;;
3095;SDS011;1558;42.700;23.360;2022-11-23T21:14:24;27.53;;;20.30;;
3095;SDS011;1558;42.700;23.360;2022-11-23T21:16:54;36.83;;;28.10;;
3095;SDS011;1558;42.700;23.360;2022-11-23T21:19:24;32.60;;;22.90;;
3095;SDS011;1558;42.700;23.360;2022-11-23T21:21:53;26.93;;;19.97;;
3095;SDS011;1558;42.700;23.360;2022-11-23T21:24:24;32.77;;;27.17;;
3095;SDS011;1558;42.700;23.360;2022-11-23T21:26:52;41.73;;;31.13;;
3095;SDS011;1558;42.700;23.360;2022-11-23T21:29:20;47.57;;;34.57;;
3095;SDS011;1558;42.700;23.360;2022-11-23T21:31:50;46.53;;;33.90;;
3095;SDS011;1558;42.700;23.360;2022-11-23T21:34:18;44.77;;;32.03;;
3095;SDS011;1558;42.700;23.360;2022-11-23T21:36:47;50.63;;;36.17;;
3095;SDS011;1558;42.700;23.360;2022-11-23T21:39:16;41.97;;;32.30;;
3095;SDS011;1558;42.700;23.360;2022-11-23T21:41:44;38.87;;;27.87;;
3095;SDS011;1558;42.700;23.360;2022-11-23T21:44:12;30.33;;;23.40;;
3095;SDS011;1558;42.700;23.360;2022-11-23T21:46:40;26.23;;;21.90;;
3095;SDS011;1558;42.700;23.360;2022-11-23T21:49:10;33.03;;;26.03;;
3095;SDS011;1558;42.700;23.360;2022-11-23T21:51:38;21.37;;;17.03;;
3095;SDS011;1558;42.700;23.360;2022-11-23T21:54:08;19.57;;;14.00;;
3095;SDS011;1558;42.700;23.360;2022-11-23T21:56:40;22.63;;;17.90;;
3095;SDS011;1558;42.700;23.360;2022-11-23T21:59:08;18.07;;;12.23;;
3095;SDS011;1558;42.700;23.360;2022-11-23T22:01:36;12.10;;;10.80;;
3095;SDS011;1558;42.700;23.360;2022-11-23T22:04:05;11.67;;;10.20;;
3095;SDS011;1558;42.700;23.360;2022-11-23T22:06:36;13.03;;;9.57;;
3095;SDS011;1558;42.700;23.360;2022-11-23T22:09:05;13.53;;;9.00;;
3095;SDS011;1558;42.700;23.360;2022-11-23T22:11:35;11.57;;;9.60;;
3095;SDS011;1558;42.700;23.360;2022-11-23T22:14:03;12.37;;;10.27;;
3095;SDS011;1558;42.700;23.360;2022-11-23T22:16:33;9.77;;;8.40;;
3095;SDS011;1558;42.700;23.360;2022-11-23T22:19:03;11.50;;;8.80;;
3095;SDS011;1558;42.700;23.360;2022-11-23T22:21:32;10.23;;;8.57;;
3095;SDS011;1558;42.700;23.360;2022-11-23T22:24:03;11.20;;;9.30;;
3095;SDS011;1558;42.700;23.360;2022-11-23T22:26:32;10.60;;;7.93;;
3095;SDS011;1558;42.700;23.360;2022-11-23T22:29:01;11.90;;;9.47;;
3095;SDS011;1558;42.700;23.360;2022-11-23T22:31:32;10.83;;;9.33;;
3095;SDS011;1558;42.700;23.360;2022-11-23T22:34:00;9.17;;;7.77;;
3095;SDS011;1558;42.700;23.360;2022-11-23T22:36:31;10.50;;;8.10;;
3095;SDS011;1558;42.700;23.360;2022-11-23T22:38:59;7.53;;;6.77;;
3095;SDS011;1558;42.700;23.360;2022-11-23T22:41:30;7.80;;;6.53;;
3095;SDS011;1558;42.700;23.360;2022-11-23T22:44:02;9.10;;;6.60;;
3095;SDS011;1558;42.700;23.360;2022-11-23T22:46:31;10.13;;;7.83;;
3095;SDS011;1558;42.700;23.360;2022-11-23T22:48:59;7.03;;;5.70;;
3095;SDS011;1558;42.700;23.360;2022-11-23T22:51:28;8.93;;;6.00;;
3095;SDS011;1558;42.700;23.360;2022-11-23T22:53:56;7.10;;;5.60;;
3095;SDS011;1558;42.700;23.360;2022-11-23T22:56:25;9.77;;;7.00;;
3095;SDS011;1558;42.700;23.360;2022-11-23T22:58:55;11.03;;;7.27;;
3095;SDS011;1558;42.700;23.360;2022-11-23T23:01:24;9.57;;;7.60;;
3095;SDS011;1558;42.700;23.360;2022-11-23T23:03:56;11.03;;;7.47;;
3095;SDS011;1558;42.700;23.360;2022-11-23T23:06:26;10.53;;;8.00;;